createdAt,value
2019-02-19T00:00:05.104Z,7.49
2019-02-19T00:02:34.102Z,7.47
2019-02-19T00:05:03.501Z,7.43
2019-02-19T00:07:32.511Z,7.38
2019-02-19T00:10:01.602Z,7.40
2019-02-19T00:12:30.650Z,7.40
2019-02-19T00:15:07.703Z,7.40
2019-02-19T00:17:30.441Z,7.38
2019-02-19T00:19:59.516Z,7.33
2019-02-19T00:22:28.536Z,7.32
2019-02-19T00:24:57.581Z,7.29
2019-02-19T00:27:26.614Z,7.31
2019-02-19T00:29:55.689Z,7.35
2019-02-19T00:32:24.703Z,7.42
2019-02-19T00:34:53.771Z,7.48
2019-02-19T00:37:22.833Z,7.53
2019-02-19T00:39:51.842Z,7.59
2019-02-19T00:42:21.174Z,7.65
2019-02-19T00:44:50.237Z,7.69
2019-02-19T00:47:19.259Z,7.73
2019-02-19T00:49:48.324Z,7.77
2019-02-19T00:52:17.709Z,7.78
2019-02-19T00:54:46.760Z,7.82
2019-02-19T00:57:15.777Z,7.86
2019-02-19T00:59:45.183Z,7.85
2019-02-19T01:02:14.191Z,7.85
2019-02-19T01:04:43.255Z,7.87
2019-02-19T01:07:12.268Z,7.81
2019-02-19T01:09:41.314Z,7.75
2019-02-19T01:12:10.362Z,7.66
2019-02-19T01:14:39.539Z,7.68
2019-02-19T01:17:08.868Z,7.67
2019-02-19T01:19:37.911Z,7.67
2019-02-19T01:22:07.043Z,7.68
2019-02-19T01:24:36.410Z,7.62
2019-02-19T01:27:05.471Z,7.70
2019-02-19T01:29:34.533Z,7.66
2019-02-19T01:32:03.491Z,7.72
2019-02-19T01:34:32.517Z,7.67
2019-02-19T01:37:01.580Z,7.71
2019-02-19T01:39:30.593Z,7.72
2019-02-19T01:41:59.627Z,7.68
2019-02-19T01:44:28.686Z,7.70
2019-02-19T01:46:57.703Z,7.66
2019-02-19T01:49:26.758Z,7.66
2019-02-19T01:51:56.285Z,7.68
2019-02-19T01:54:25.323Z,7.68
2019-02-19T01:56:54.382Z,7.70
2019-02-19T01:59:23.401Z,7.70
2019-02-19T02:01:52.470Z,7.70
2019-02-19T02:04:21.530Z,7.62
2019-02-19T02:06:50.398Z,7.58
2019-02-19T02:09:19.458Z,7.50
2019-02-19T02:11:48.540Z,7.49
2019-02-19T02:14:17.562Z,7.46
2019-02-19T02:16:46.587Z,7.48
2019-02-19T02:19:15.648Z,7.54
2019-02-19T02:21:44.682Z,7.51
2019-02-19T02:24:13.782Z,7.52
2019-02-19T02:26:42.851Z,7.56
2019-02-19T02:29:11.810Z,7.62
2019-02-19T02:31:40.851Z,7.62
2019-02-19T02:34:09.934Z,7.67
2019-02-19T02:36:38.874Z,7.69
2019-02-19T02:39:08.208Z,7.68
2019-02-19T02:41:37.255Z,7.69
2019-02-19T02:44:06.624Z,7.71
2019-02-19T02:46:35.681Z,7.67
2019-02-19T02:49:04.646Z,7.69
2019-02-19T02:51:33.662Z,7.75
2019-02-19T02:54:03.033Z,7.75
2019-02-19T02:56:32.025Z,7.76
2019-02-19T02:59:01.047Z,7.80
2019-02-19T03:01:30.120Z,7.77
2019-02-19T03:03:59.126Z,7.79
2019-02-19T03:06:47.484Z,7.74
2019-02-19T03:09:16.566Z,7.73
2019-02-19T03:11:45.478Z,7.76
2019-02-19T03:14:14.540Z,7.76
2019-02-19T03:16:43.617Z,7.67
2019-02-19T03:19:12.632Z,7.75
2019-02-19T03:21:41.704Z,7.69
2019-02-19T03:24:11.072Z,7.74
2019-02-19T03:26:40.087Z,7.66
2019-02-19T03:29:09.086Z,7.63
2019-02-19T03:31:38.404Z,7.63
2019-02-19T03:34:07.471Z,7.65
2019-02-19T03:36:36.496Z,7.61
2019-02-19T03:39:05.988Z,7.61
2019-02-19T03:41:35.050Z,7.59
2019-02-19T03:44:04.070Z,7.49
2019-02-19T03:46:33.416Z,7.53
2019-02-19T03:49:02.441Z,7.52
2019-02-19T03:51:31.461Z,7.47
2019-02-19T03:54:00.620Z,7.48
2019-02-19T03:56:29.647Z,7.45
2019-02-19T03:58:59.065Z,7.44
2019-02-19T04:01:28.138Z,7.37
2019-02-19T04:03:57.218Z,7.35
2019-02-19T04:06:26.615Z,7.29
2019-02-19T04:08:55.930Z,7.32
2019-02-19T04:11:24.996Z,7.39
2019-02-19T04:13:54.051Z,7.27
2019-02-19T04:16:23.071Z,7.21
2019-02-19T04:18:52.387Z,7.17
2019-02-19T04:21:21.359Z,7.16
2019-02-19T04:23:50.358Z,7.13
2019-02-19T04:26:19.699Z,7.13
2019-02-19T04:28:48.769Z,7.12
2019-02-19T04:31:17.819Z,7.08
2019-02-19T04:33:46.874Z,7.06
2019-02-19T04:36:15.880Z,7.04
2019-02-19T04:38:44.927Z,7.08
2019-02-19T04:41:14.014Z,7.05
2019-02-19T04:43:42.982Z,7.07
2019-02-19T04:46:12.400Z,7.06
2019-02-19T04:48:41.345Z,7.09
2019-02-19T04:51:10.358Z,7.15
2019-02-19T04:53:39.402Z,7.18
2019-02-19T04:56:08.419Z,7.17
2019-02-19T04:58:37.474Z,7.17
2019-02-19T05:01:06.493Z,7.18
2019-02-19T05:03:35.571Z,7.15
2019-02-19T05:06:04.587Z,7.19
2019-02-19T05:08:33.625Z,7.16
2019-02-19T05:11:02.731Z,7.12
2019-02-19T05:13:31.674Z,7.12
2019-02-19T05:16:00.702Z,7.12
2019-02-19T05:18:29.793Z,7.13
2019-02-19T05:20:58.864Z,7.13
2019-02-19T05:23:27.875Z,7.13
2019-02-19T05:25:56.952Z,7.18
2019-02-19T05:28:25.928Z,7.14
2019-02-19T05:30:55.266Z,7.14
2019-02-19T05:33:24.250Z,7.18
2019-02-19T05:35:53.181Z,7.14
2019-02-19T05:38:22.183Z,7.13
2019-02-19T05:40:51.274Z,7.18
2019-02-19T05:43:20.330Z,7.18
2019-02-19T05:45:49.711Z,7.16
2019-02-19T05:48:18.726Z,7.21
2019-02-19T05:50:48.050Z,7.20
2019-02-19T05:53:17.466Z,7.17
2019-02-19T05:55:46.536Z,7.16
2019-02-19T05:58:15.568Z,7.13
2019-02-19T06:00:44.615Z,7.12
2019-02-19T06:03:13.971Z,7.11
2019-02-19T06:05:42.990Z,7.14
2019-02-19T06:08:12.011Z,7.18
2019-02-19T06:10:41.038Z,7.16
2019-02-19T06:13:10.390Z,7.09
2019-02-19T06:15:39.367Z,7.12
2019-02-19T06:18:08.237Z,7.05
2019-02-19T06:20:37.287Z,7.12
2019-02-19T06:23:06.310Z,7.14
2019-02-19T06:25:35.367Z,7.14
2019-02-19T06:28:04.377Z,7.07
2019-02-19T06:30:33.425Z,7.06
2019-02-19T06:33:02.403Z,7.07
2019-02-19T06:35:31.286Z,7.12
2019-02-19T06:38:00.334Z,7.11
2019-02-19T06:40:29.964Z,7.11
2019-02-19T06:42:58.970Z,7.07
2019-02-19T06:45:27.918Z,7.05
2019-02-19T06:47:56.970Z,7.03
2019-02-19T06:50:26.029Z,7.09
2019-02-19T06:52:55.050Z,7.08
2019-02-19T06:55:24.477Z,7.08
2019-02-19T06:57:53.549Z,7.11
2019-02-19T07:00:22.633Z,7.09
2019-02-19T07:02:59.756Z,7.06
2019-02-19T07:05:28.894Z,7.09
2019-02-19T07:07:57.921Z,7.02
2019-02-19T07:10:27.019Z,7.08
2019-02-19T07:12:56.039Z,7.10
2019-02-19T07:15:25.058Z,7.10
2019-02-19T07:17:54.125Z,7.06
2019-02-19T07:20:23.193Z,7.06
2019-02-19T07:22:52.280Z,7.07
2019-02-19T07:25:21.448Z,7.09
2019-02-19T07:27:50.505Z,7.08
2019-02-19T07:30:19.568Z,7.09
2019-02-19T07:32:48.631Z,7.07
2019-02-19T07:35:17.668Z,7.03
2019-02-19T07:37:47.071Z,7.03
2019-02-19T07:40:17.504Z,7.04
2019-02-19T07:42:46.585Z,7.08
2019-02-19T07:45:15.658Z,7.10
2019-02-19T07:47:44.605Z,7.11
2019-02-19T07:50:13.626Z,7.11
2019-02-19T07:52:42.533Z,7.21
2019-02-19T07:55:11.549Z,7.36
2019-02-19T07:57:42.825Z,7.48
2019-02-19T08:00:11.711Z,7.56
2019-02-19T08:02:40.737Z,7.59
2019-02-19T08:05:10.134Z,7.60
2019-02-19T08:07:39.220Z,7.58
2019-02-19T08:10:08.510Z,7.67
2019-02-19T08:12:37.616Z,7.69
2019-02-19T08:15:06.947Z,7.66
2019-02-19T08:17:36.312Z,7.64
2019-02-19T08:20:05.701Z,7.58
2019-02-19T08:22:35.086Z,7.72
2019-02-19T08:25:04.237Z,7.61
2019-02-19T08:27:33.330Z,7.67
2019-02-19T08:30:02.345Z,7.68
2019-02-19T08:32:31.351Z,7.72
2019-02-19T08:35:00.432Z,7.71
2019-02-19T08:37:29.327Z,7.82
2019-02-19T08:39:58.310Z,7.84
2019-02-19T08:42:27.340Z,7.78
2019-02-19T08:44:56.351Z,7.82
2019-02-19T08:47:25.414Z,7.78
2019-02-19T08:49:54.349Z,7.91
2019-02-19T08:52:23.363Z,7.93
2019-02-19T08:54:52.434Z,7.88
2019-02-19T08:57:21.493Z,7.92
2019-02-19T08:59:50.558Z,8.02
2019-02-19T09:02:19.574Z,8.03
2019-02-19T09:04:48.647Z,8.02
2019-02-19T09:07:17.761Z,7.91
2019-02-19T09:09:46.737Z,7.91
2019-02-19T09:12:15.728Z,7.97
2019-02-19T09:14:44.706Z,7.98
2019-02-19T09:17:13.664Z,8.04
2019-02-19T09:19:42.716Z,7.96
2019-02-19T09:22:11.652Z,7.95
2019-02-19T09:24:40.647Z,7.85
2019-02-19T09:27:09.662Z,7.70
2019-02-19T09:29:38.672Z,7.70
2019-02-19T09:32:07.955Z,7.69
2019-02-19T09:34:36.892Z,7.72
2019-02-19T09:37:05.929Z,7.70
2019-02-19T09:39:34.969Z,7.77
2019-02-19T09:42:03.995Z,7.76
2019-02-19T09:44:32.957Z,7.83
2019-02-19T09:47:05.153Z,7.77
2019-02-19T09:49:34.134Z,7.83
2019-02-19T09:52:03.124Z,7.80
2019-02-19T09:54:32.134Z,7.88
2019-02-19T09:57:01.181Z,7.75
2019-02-19T09:59:30.223Z,7.73
2019-02-19T10:01:59.279Z,7.71
2019-02-19T10:04:28.286Z,7.78
2019-02-19T10:06:57.336Z,7.76
2019-02-19T10:09:26.224Z,7.80
2019-02-19T10:11:55.349Z,7.85
2019-02-19T10:14:24.333Z,7.92
2019-02-19T10:16:53.419Z,7.97
2019-02-19T10:19:22.466Z,7.90
2019-02-19T10:21:51.473Z,7.87
2019-02-19T10:24:20.457Z,7.83
2019-02-19T10:26:49.753Z,7.83
2019-02-19T10:29:18.890Z,7.88
2019-02-19T10:31:47.941Z,7.96
2019-02-19T10:34:17.312Z,8.08
2019-02-19T10:36:46.312Z,8.12
2019-02-19T10:39:15.323Z,8.04
2019-02-19T10:41:44.341Z,7.92
2019-02-19T10:44:13.404Z,7.97
2019-02-19T10:46:42.458Z,7.95
2019-02-19T10:49:11.818Z,8.08
2019-02-19T10:51:40.884Z,8.17
2019-02-19T10:54:09.899Z,8.07
2019-02-19T10:56:38.932Z,7.90
2019-02-19T10:59:08.033Z,7.91
2019-02-19T11:01:37.369Z,7.93
2019-02-19T11:04:06.385Z,7.96
2019-02-19T11:06:35.463Z,7.89
2019-02-19T11:09:05.330Z,7.82
2019-02-19T11:11:34.338Z,7.82
2019-02-19T11:14:03.406Z,7.89
2019-02-19T11:16:32.358Z,7.93
2019-02-19T11:19:01.421Z,7.94
2019-02-19T11:21:30.522Z,7.95
2019-02-19T11:23:59.533Z,8.05
2019-02-19T11:26:28.596Z,7.99
2019-02-19T11:28:57.612Z,7.92
2019-02-19T11:31:26.635Z,8.09
2019-02-19T11:33:55.690Z,8.20
2019-02-19T11:36:24.713Z,8.28
2019-02-19T11:38:53.690Z,8.43
2019-02-19T11:41:22.714Z,8.55
2019-02-19T11:43:52.131Z,8.56
2019-02-19T11:46:21.141Z,8.58
2019-02-19T11:48:50.549Z,8.43
2019-02-19T11:51:19.568Z,8.31
2019-02-19T11:53:48.623Z,8.32
2019-02-19T11:56:18.035Z,8.22
2019-02-19T11:58:46.990Z,8.30
2019-02-19T12:01:16.013Z,8.25
2019-02-19T12:03:45.353Z,8.43
2019-02-19T12:06:14.617Z,8.44
2019-02-19T12:08:43.638Z,8.57
2019-02-19T12:11:12.987Z,8.58
2019-02-19T12:13:42.007Z,8.56
2019-02-19T12:16:11.053Z,8.74
2019-02-19T12:18:46.301Z,8.81
2019-02-19T12:21:11.166Z,8.82
2019-02-19T12:23:40.519Z,8.80
2019-02-19T12:26:09.543Z,8.80
2019-02-19T12:28:38.548Z,9.03
2019-02-19T12:31:07.568Z,9.16
2019-02-19T12:33:36.877Z,9.15
2019-02-19T12:36:05.934Z,9.04
2019-02-19T12:38:34.879Z,8.94
2019-02-19T12:41:03.941Z,9.01
2019-02-19T12:43:32.957Z,9.08
2019-02-19T12:46:01.935Z,9.05
2019-02-19T12:48:31.006Z,9.10
2019-02-19T12:51:00.052Z,9.20
2019-02-19T12:53:29.418Z,9.34
2019-02-19T12:55:58.479Z,9.37
2019-02-19T12:58:27.494Z,9.47
2019-02-19T13:00:56.556Z,9.31
2019-02-19T13:03:25.611Z,9.24
2019-02-19T13:05:54.667Z,9.40
2019-02-19T13:08:23.746Z,9.39
2019-02-19T13:10:52.695Z,9.48
2019-02-19T13:13:21.701Z,9.32
2019-02-19T13:15:50.676Z,9.53
2019-02-19T13:18:19.738Z,9.75
2019-02-19T13:20:48.807Z,9.70
2019-02-19T13:23:17.857Z,9.65
2019-02-19T13:25:46.884Z,9.51
2019-02-19T13:28:15.924Z,9.26
2019-02-19T13:30:44.985Z,9.09
2019-02-19T13:33:14.038Z,9.08
2019-02-19T13:35:43.045Z,9.11
2019-02-19T13:38:12.097Z,9.12
2019-02-19T13:40:41.143Z,9.11
2019-02-19T13:43:10.446Z,9.13
2019-02-19T13:45:39.497Z,8.93
2019-02-19T13:48:08.550Z,8.76
2019-02-19T13:50:37.940Z,8.77
2019-02-19T13:53:31.996Z,8.82
2019-02-19T13:56:02.440Z,8.86
2019-02-19T13:58:31.450Z,8.79
2019-02-19T14:01:00.505Z,8.72
2019-02-19T14:03:29.561Z,8.84
2019-02-19T14:05:58.587Z,8.82
2019-02-19T14:08:27.533Z,8.93
2019-02-19T14:10:56.581Z,8.98
2019-02-19T14:13:25.604Z,8.98
2019-02-19T14:16:04.830Z,9.01
2019-02-19T14:18:48.736Z,9.09
2019-02-19T14:21:35.917Z,9.02
2019-02-19T14:24:30.791Z,9.06
2019-02-19T14:27:24.814Z,9.10
2019-02-19T14:30:12.021Z,9.12
2019-02-19T14:33:06.560Z,9.08
2019-02-19T14:36:13.383Z,8.79
2019-02-19T14:39:05.497Z,8.80
2019-02-19T14:42:02.787Z,8.84
2019-02-19T14:44:59.611Z,8.77
2019-02-19T14:48:02.031Z,8.72
2019-02-19T14:50:52.935Z,8.59
2019-02-19T14:53:40.866Z,8.58
2019-02-19T14:56:28.891Z,8.42
2019-02-19T14:59:20.620Z,8.42
2019-02-19T15:02:08.616Z,8.41
2019-02-19T15:05:05.402Z,8.31
2019-02-19T15:08:02.583Z,8.32
2019-02-19T15:10:56.448Z,8.34
2019-02-19T15:13:47.640Z,8.29
2019-02-19T15:16:44.848Z,8.25
2019-02-19T15:19:39.469Z,8.20
2019-02-19T15:22:30.305Z,8.21
2019-02-19T15:25:24.622Z,8.13
2019-02-19T15:28:12.951Z,8.10
2019-02-19T15:30:59.602Z,8.10
2019-02-19T15:33:49.308Z,8.09
2019-02-19T15:36:34.287Z,8.02
2019-02-19T15:39:20.932Z,8.05
2019-02-19T15:42:08.963Z,8.06
2019-02-19T15:44:48.879Z,8.02
2019-02-19T15:47:39.677Z,8.02
2019-02-19T15:50:16.014Z,7.97
2019-02-19T15:52:56.105Z,7.98
2019-02-19T15:55:43.962Z,8.02
2019-02-19T15:58:30.654Z,8.01
2019-02-19T16:01:17.624Z,7.98
2019-02-19T16:04:01.204Z,8.01
2019-02-19T16:06:48.832Z,7.93
2019-02-19T16:09:35.638Z,7.84
2019-02-19T16:12:23.635Z,7.77
2019-02-19T16:15:12.239Z,7.76
2019-02-19T16:17:56.388Z,7.74
2019-02-19T16:20:53.708Z,7.72
2019-02-19T16:23:41.816Z,7.69
2019-02-19T16:26:38.341Z,7.72
2019-02-19T16:29:34.309Z,7.65
2019-02-19T16:32:28.483Z,7.56
2019-02-19T16:35:07.457Z,7.53
2019-02-19T16:37:47.099Z,7.48
2019-02-19T16:40:38.338Z,7.45
2019-02-19T16:43:25.095Z,7.36
2019-02-19T16:46:11.977Z,7.28
2019-02-19T16:48:48.936Z,7.25
2019-02-19T16:51:35.773Z,7.15
2019-02-19T16:54:26.971Z,7.19
2019-02-19T16:57:01.543Z,7.28
2019-02-19T16:59:50.515Z,7.31
2019-02-19T17:02:27.514Z,7.30
2019-02-19T17:05:34.294Z,7.34
2019-02-19T17:08:31.392Z,7.34
2019-02-19T17:11:10.633Z,7.37
2019-02-19T17:13:58.594Z,7.38
2019-02-19T17:16:36.654Z,7.40
2019-02-19T17:19:43.707Z,7.48
2019-02-19T17:22:40.654Z,7.51
2019-02-19T17:25:31.231Z,7.49
2019-02-19T17:28:37.944Z,7.52
2019-02-19T17:31:24.530Z,7.52
2019-02-19T17:34:11.731Z,7.53
2019-02-19T17:36:58.420Z,7.48
2019-02-19T17:40:05.129Z,7.53
2019-02-19T17:42:48.061Z,7.54
2019-02-19T17:45:38.758Z,7.44
2019-02-19T17:48:29.582Z,7.44
2019-02-19T17:51:29.730Z,7.51
2019-02-19T17:54:17.795Z,7.50
2019-02-19T17:57:11.192Z,7.56
2019-02-19T17:59:59.545Z,7.56
2019-02-19T18:02:36.625Z,7.48
2019-02-19T18:05:37.002Z,7.52
2019-02-19T18:08:16.351Z,7.50
2019-02-19T18:10:58.496Z,7.50
2019-02-19T18:13:41.497Z,7.49
2019-02-19T18:16:29.532Z,7.48
2019-02-19T18:18:58.594Z,7.53
2019-02-19T18:21:27.609Z,7.58
2019-02-19T18:23:56.902Z,7.56
2019-02-19T18:26:25.926Z,7.52
2019-02-19T18:28:54.920Z,7.57
2019-02-19T18:31:24.242Z,7.55
2019-02-19T18:33:53.246Z,7.56
2019-02-19T18:36:22.661Z,7.48
2019-02-19T18:38:51.703Z,7.53
2019-02-19T18:41:21.102Z,7.51
2019-02-19T18:43:50.441Z,7.44
2019-02-19T18:46:19.471Z,7.38
2019-02-19T18:48:48.476Z,7.40
2019-02-19T18:51:17.493Z,7.42
2019-02-19T18:53:47.076Z,7.41
2019-02-19T18:56:16.120Z,7.30
2019-02-19T18:58:45.137Z,7.20
2019-02-19T19:01:14.213Z,7.17
2019-02-19T19:03:43.578Z,7.10
2019-02-19T19:06:12.626Z,7.11
2019-02-19T19:08:41.646Z,7.08
2019-02-19T19:11:10.705Z,7.12
2019-02-19T19:13:40.110Z,7.13
2019-02-19T19:16:09.147Z,7.15
2019-02-19T19:18:38.155Z,7.21
2019-02-19T19:21:08.247Z,7.19
2019-02-19T19:23:37.490Z,7.16
2019-02-19T19:26:06.544Z,7.23
2019-02-19T19:28:35.554Z,7.22
2019-02-19T19:31:06.435Z,7.24
2019-02-19T19:33:35.366Z,7.27
2019-02-19T19:36:04.412Z,7.31
2019-02-19T19:38:33.441Z,7.36
2019-02-19T19:41:02.543Z,7.30
2019-02-19T19:43:31.633Z,7.31
2019-02-19T19:46:00.627Z,7.27
2019-02-19T19:48:29.969Z,7.33
2019-02-19T19:50:59.002Z,7.35
2019-02-19T19:53:28.043Z,7.34
2019-02-19T19:55:57.049Z,7.37
2019-02-19T19:58:26.079Z,7.37
2019-02-19T20:00:55.131Z,7.38
2019-02-19T20:03:24.144Z,7.39
2019-02-19T20:05:53.163Z,7.42
2019-02-19T20:08:22.146Z,7.49
2019-02-19T20:10:51.161Z,7.41
2019-02-19T20:13:20.251Z,7.43
2019-02-19T20:15:49.588Z,7.48
2019-02-19T20:18:18.601Z,7.43
2019-02-19T20:20:47.650Z,7.42
2019-02-19T20:23:16.677Z,7.42
2019-02-19T20:25:45.772Z,7.40
2019-02-19T20:28:15.383Z,7.43
2019-02-19T20:30:44.438Z,7.44
2019-02-19T20:33:13.527Z,7.42
2019-02-19T20:35:42.854Z,7.42
2019-02-19T20:38:12.139Z,7.36
2019-02-19T20:40:41.178Z,7.39
2019-02-19T20:43:10.211Z,7.31
2019-02-19T20:45:39.252Z,7.33
2019-02-19T20:48:08.335Z,7.36
2019-02-19T20:50:37.321Z,7.32
2019-02-19T20:53:06.326Z,7.36
2019-02-19T20:55:37.135Z,7.36
2019-02-19T20:58:06.391Z,7.28
2019-02-19T21:00:35.464Z,7.28
2019-02-19T21:03:04.517Z,7.26
2019-02-19T21:05:33.554Z,7.26
2019-02-19T21:08:02.632Z,7.27
2019-02-19T21:10:31.647Z,7.29
2019-02-19T21:13:00.701Z,7.24
2019-02-19T21:15:29.729Z,7.24
2019-02-19T21:17:58.781Z,7.18
2019-02-19T21:20:28.093Z,7.15
2019-02-19T21:22:57.161Z,7.19
2019-02-19T21:25:31.066Z,7.11
2019-02-19T21:27:56.933Z,7.12
2019-02-19T21:30:25.955Z,7.06
2019-02-19T21:32:54.911Z,7.11
2019-02-19T21:35:23.937Z,7.11
2019-02-19T21:37:52.955Z,7.17
2019-02-19T21:40:22.010Z,7.26
2019-02-19T21:42:51.018Z,7.24
2019-02-19T21:45:20.066Z,7.25
2019-02-19T21:47:49.117Z,7.24
2019-02-19T21:50:18.140Z,7.10
2019-02-19T21:52:47.573Z,7.11
2019-02-19T21:55:16.577Z,7.11
2019-02-19T21:57:45.627Z,7.16
2019-02-19T22:00:16.157Z,7.14
2019-02-19T22:02:45.220Z,7.10
2019-02-19T22:05:14.276Z,7.01
2019-02-19T22:07:43.289Z,6.97
2019-02-19T22:10:12.575Z,6.96
2019-02-19T22:12:41.591Z,6.81
2019-02-19T22:15:11.068Z,6.75
2019-02-19T22:17:40.100Z,6.76
2019-02-19T22:20:15.782Z,6.80
2019-02-19T22:22:44.810Z,6.93
2019-02-19T22:25:13.863Z,6.97
2019-02-19T22:27:42.939Z,7.05
2019-02-19T22:30:12.076Z,6.99
2019-02-19T22:32:41.098Z,7.02
2019-02-19T22:35:10.113Z,7.04
2019-02-19T22:37:39.276Z,7.02
2019-02-19T22:40:08.322Z,7.16
2019-02-19T22:42:37.364Z,7.23
2019-02-19T22:45:06.581Z,7.17
2019-02-19T22:47:35.603Z,7.15
2019-02-19T22:50:04.777Z,7.10
2019-02-19T22:52:33.786Z,7.10
2019-02-19T22:55:12.297Z,7.09
2019-02-19T22:57:41.326Z,7.05
2019-02-19T23:00:34.465Z,7.06
2019-02-19T23:03:03.581Z,7.03
2019-02-19T23:05:33.194Z,7.08
2019-02-19T23:08:02.266Z,7.04
2019-02-19T23:10:31.273Z,6.99
2019-02-19T23:13:00.298Z,7.01
2019-02-19T23:15:29.672Z,6.84
2019-02-19T23:17:58.732Z,6.92
2019-02-19T23:20:28.047Z,6.91
2019-02-19T23:22:57.075Z,6.95
2019-02-19T23:25:26.140Z,6.95
2019-02-19T23:27:55.114Z,6.93
2019-02-19T23:30:24.205Z,6.97
2019-02-19T23:32:53.233Z,7.01
2019-02-19T23:35:31.953Z,7.05
2019-02-19T23:38:00.930Z,6.98
2019-02-19T23:40:29.986Z,7.06
2019-02-19T23:42:58.992Z,7.07
2019-02-19T23:45:28.046Z,7.09
2019-02-19T23:47:57.061Z,7.02
2019-02-19T23:50:26.146Z,7.05
2019-02-19T23:52:55.184Z,7.08
2019-02-19T23:55:24.592Z,7.02
2019-02-19T23:57:53.649Z,7.00
